»·PEaware :: N2478W KVCV-KBFL

N2478W :: KVCV-KBFL

FLIGHT INFORMATION

Flight Status: Arrived
Operator: Privately registered:
United States
More flights under this callsign
Pilot: Chris C. (210)
Aircraft: PIPER PA-46-310/350P MALIBU MIRAGE
(PA46)
More flights by this aircraft type
Origin: KVCV Socal Logistics
United States
Destination: KBFL Meadows
United States
More flights between these airports :: More routes between these airports
Route: +ODP ETHER V12 PMD FASTO1
File this flight plan on PilotEdge
Remarks: / V /
Altitude:
(Current/Filed)
12,000ft
Speed:
(Current/Filed)
200kts
Departed: 29-Jan-12 08:25 PM
Arrived: 29-Jan-12 08:58 PM
Distance/Time
Traveled:
96nm/0:33
Distance/Time
To Go:
Arrived

Flight Plot

Page will automatically refresh every two minutes.


Map Options




Map Legend


Flown Route
Filed Route
Departure Airport
Arrival Airport
Navaid (VOR, NDB)
Fix

Horizontal Profiles

Position Reports

Time Latitude Longitude Heading Altitude Ground
Speed
29-Jan-12 19:52 34.586890 -117.376375 134 2889ft 0kts
29-Jan-12 19:53 34.586887 -117.376371 134 2889ft 0kts
29-Jan-12 19:54 34.586900 -117.376386 134 2889ft 0kts
29-Jan-12 19:55 34.586896 -117.376381 134 2889ft 0kts
29-Jan-12 19:56 34.586892 -117.376376 134 2889ft 0kts
29-Jan-12 19:57 34.586888 -117.376371 134 2889ft 0kts
29-Jan-12 19:58 34.586884 -117.376366 134 2889ft 0kts
29-Jan-12 19:59 34.586880 -117.376361 134 2889ft 0kts
29-Jan-12 20:00 34.586876 -117.376356 134 2889ft 0kts
29-Jan-12 20:01 34.586872 -117.376351 134 2889ft 0kts
29-Jan-12 20:02 34.586867 -117.376345 134 2889ft 0kts
29-Jan-12 20:03 34.586863 -117.376340 134 2889ft 0kts
29-Jan-12 20:04 34.586859 -117.376334 134 2889ft 0kts
29-Jan-12 20:05 34.586854 -117.376329 134 2889ft 0kts
29-Jan-12 20:06 34.586850 -117.376324 134 2889ft 0kts
29-Jan-12 20:07 34.586846 -117.376318 134 2889ft 0kts
29-Jan-12 20:08 34.586841 -117.376313 134 2889ft 0kts
29-Jan-12 20:09 34.586837 -117.376308 134 2889ft 0kts
29-Jan-12 20:10 34.586833 -117.376302 134 2889ft 0kts
29-Jan-12 20:11 34.586828 -117.376297 134 2889ft 0kts
29-Jan-12 20:12 34.586824 -117.376291 134 2889ft 0kts
29-Jan-12 20:13 34.586819 -117.376286 134 2889ft 0kts
29-Jan-12 20:14 34.586816 -117.376281 134 2889ft 0kts
29-Jan-12 20:16 34.586808 -117.376272 134 2889ft 0kts
29-Jan-12 20:18 34.586799 -117.376261 134 2889ft 0kts
29-Jan-12 20:19 34.586732 -117.376247 205 2889ft 5kts
29-Jan-12 20:20 34.585152 -117.380166 359 2889ft 11kts
29-Jan-12 20:21 34.582707 -117.384958 309 2889ft 11kts
29-Jan-12 20:22 34.583063 -117.385671 293 2889ft 0kts
29-Jan-12 20:23 34.583185 -117.386014 291 2889ft 12kts
29-Jan-12 20:24 34.601257 -117.386187 2 3503ft 111kts
29-Jan-12 20:25 34.622485 -117.416034 241 4320ft 159kts
29-Jan-12 20:26 34.600809 -117.452137 232 6437ft 141kts
29-Jan-12 20:27 34.578361 -117.491764 262 7986ft 155kts
29-Jan-12 20:28 34.596327 -117.546938 296 8222ft 181kts
29-Jan-12 20:29 34.617257 -117.608203 290 8656ft 209kts
29-Jan-12 20:30 34.637594 -117.675495 290 9063ft 213kts
29-Jan-12 20:31 34.658045 -117.743547 290 9517ft 212kts
29-Jan-12 20:32 34.658397 -117.811739 263 10530ft 201kts
29-Jan-12 20:33 34.651626 -117.877754 264 11532ft 193kts
29-Jan-12 20:34 34.644592 -117.943023 264 12239ft 202kts
29-Jan-12 20:35 34.636796 -118.014196 263 12253ft 216kts
29-Jan-12 20:36 34.646697 -118.082936 314 12255ft 217kts
29-Jan-12 20:37 34.687980 -118.136698 310 12253ft 217kts
29-Jan-12 20:38 34.729149 -118.191093 312 12135ft 222kts
29-Jan-12 20:39 34.771517 -118.246335 312 11999ft 219kts
29-Jan-12 20:40 34.812553 -118.299912 311 11998ft 210kts
29-Jan-12 20:41 34.852546 -118.350887 314 11999ft 206kts
29-Jan-12 20:42 34.893747 -118.400748 313 11826ft 208kts
29-Jan-12 20:43 34.934767 -118.450731 313 11139ft 210kts
29-Jan-12 20:44 34.976394 -118.501535 313 10452ft 211kts
29-Jan-12 20:45 35.018777 -118.553342 314 9762ft 217kts
29-Jan-12 20:46 35.061746 -118.605943 314 9112ft 216kts
29-Jan-12 20:47 35.102785 -118.656254 314 8997ft 199kts
29-Jan-12 20:48 35.142405 -118.704914 313 8498ft 207kts
29-Jan-12 20:49 35.184128 -118.756279 314 7859ft 214kts
29-Jan-12 20:50 35.225973 -118.809409 313 7221ft 216kts
29-Jan-12 20:51 35.269991 -118.854817 317 5827ft 200kts
29-Jan-12 20:52 35.311434 -118.905664 313 2876ft 196kts
29-Jan-12 20:53 35.339537 -118.939863 317 2245ft 146kts
29-Jan-12 20:55 35.398351 -119.013896 315 1666ft 142kts
29-Jan-12 20:56 35.425196 -119.045988 315 725ft 124kts
29-Jan-12 20:57 35.438572 -119.061064 82 511ft 11kts
29-Jan-12 20:58 35.434941 -119.055044 134 511ft 31kts
29-Jan-12 20:59 35.433302 -119.050217 41 511ft 15kts
29-Jan-12 21:00 35.433224 -119.049892 184 510ft 0kts
29-Jan-12 21:01 35.433219 -119.049892 184 510ft 0kts
29-Jan-12 21:02 35.433213 -119.049893 184 510ft 0kts

Navigation Log

Ident Type
Flight plan parsing failed, navigation log unavailable